Time;durP1;ratioP1;P1;durP2;ratioP2;P2;SDS_P1;SDS_P2;PMS_P1;PMS_P2;Temp;Humidity;BMP_temperature;BMP_pressure;BME280_temperature;BME280_humidity;BME280_pressure;Samples;Min_cycle;Max_cycle;Signal;HPM_P1;HPM_P2
2021/03/06 00:00:35;;;;;;;10.70;2.78;;;26.30;63.10;;;;;;4877863;29;20467;-81
2021/03/06 00:03:03;;;;;;;13.40;2.87;;;26.90;64.10;;;;;;4876812;29;20402;-80
2021/03/06 00:05:30;;;;;;;12.32;3.05;;;26.90;64.10;;;;;;4876795;29;20427;-80
2021/03/06 00:07:57;;;;;;;13.27;2.97;;;26.20;63.50;;;;;;4877192;29;20394;-80
2021/03/06 00:10:25;;;;;;;11.55;3.03;;;26.20;63.70;;;;;;4876497;29;20403;-80
2021/03/06 00:12:52;;;;;;;11.55;2.65;;;27.10;63.20;;;;;;4876461;29;20375;-80
2021/03/06 00:15:26;;;;;;;9.25;2.55;;;27.40;60.20;;;;;;4876723;29;20879;-80
2021/03/06 00:17:54;;;;;;;9.20;2.35;;;26.30;62.60;;;;;;4876467;29;20458;-80
2021/03/06 00:20:21;;;;;;;12.32;2.75;;;25.50;63.30;;;;;;4876172;29;20487;-80
2021/03/06 00:22:50;;;;;;;14.07;2.75;;;24.90;64.50;;;;;;4876380;29;20819;-80
2021/03/06 00:25:19;;;;;;;13.85;3.17;;;25.10;67.20;;;;;;4876352;29;20891;-80
2021/03/06 00:27:46;;;;;;;11.43;2.70;;;25.10;68.00;;;;;;4876051;29;20395;-81
2021/03/06 00:30:15;;;;;;;7.93;2.42;;;24.10;66.60;;;;;;4876216;29;20399;-80
2021/03/06 00:32:43;;;;;;;10.20;2.50;;;23.10;68.60;;;;;;4876020;29;20438;-81
2021/03/06 00:35:10;;;;;;;10.20;2.60;;;22.40;70.50;;;;;;4890364;29;20413;-81
2021/03/06 00:37:38;;;;;;;8.37;2.03;;;21.90;72.70;;;;;;4894626;29;20389;-80
2021/03/06 00:40:07;;;;;;;10.40;2.67;;;21.30;74.00;;;;;;4894492;29;20436;-81
2021/03/06 00:42:34;;;;;;;10.83;2.47;;;21.00;75.30;;;;;;4894614;29;20397;-79
2021/03/06 00:45:02;;;;;;;11.52;2.70;;;20.60;76.70;;;;;;4895038;29;20433;-80
2021/03/06 00:47:29;;;;;;;10.03;2.40;;;20.50;77.90;;;;;;4894247;29;20442;-80
2021/03/06 00:49:56;;;;;;;12.03;2.43;;;20.40;76.90;;;;;;4888239;29;20439;-79
2021/03/06 00:52:23;;;;;;;11.15;2.22;;;20.30;79.10;;;;;;4881997;29;20458;-81
2021/03/06 00:54:50;;;;;;;13.80;2.47;;;20.50;80.00;;;;;;4874263;29;20411;-81
2021/03/06 00:57:17;;;;;;;10.30;2.83;;;20.70;79.50;;;;;;4882268;29;20928;-79
2021/03/06 00:59:44;;;;;;;10.77;2.45;;;20.70;79.10;;;;;;4878933;29;20985;-80
2021/03/06 01:02:11;;;;;;;10.63;2.30;;;20.70;76.60;;;;;;4874729;29;20414;-79
2021/03/06 01:04:38;;;;;;;9.90;2.27;;;20.80;79.10;;;;;;4879438;29;20402;-81
2021/03/06 01:07:05;;;;;;;9.33;2.53;;;20.80;78.70;;;;;;4875417;29;20957;-81
2021/03/06 01:09:32;;;;;;;9.60;2.20;;;20.90;76.60;;;;;;4878933;29;20465;-82
2021/03/06 01:11:59;;;;;;;13.60;2.57;;;20.90;78.50;;;;;;4875313;29;20413;-83
2021/03/06 01:14:26;;;;;;;10.38;2.53;;;20.70;78.50;;;;;;4875418;29;20834;-83
2021/03/06 01:16:53;;;;;;;8.15;2.10;;;20.70;78.60;;;;;;4875185;29;20486;-82
2021/03/06 01:19:20;;;;;;;12.65;2.88;;;20.80;79.60;;;;;;4875296;29;20918;-83
2021/03/06 01:21:47;;;;;;;11.23;2.30;;;21.20;80.10;;;;;;4875449;29;20383;-80
2021/03/06 01:24:14;;;;;;;9.90;2.47;;;21.40;79.70;;;;;;4875342;29;20478;-81
2021/03/06 01:26:42;;;;;;;13.48;2.92;;;21.50;78.10;;;;;;4875292;29;20467;-81
2021/03/06 01:29:09;;;;;;;9.05;2.38;;;21.70;80.00;;;;;;4875154;29;20477;-81
2021/03/06 01:31:36;;;;;;;10.13;2.40;;;21.80;76.70;;;;;;4875274;29;20858;-81
2021/03/06 01:34:03;;;;;;;13.73;2.33;;;21.70;77.60;;;;;;4874926;29;20411;-81
2021/03/06 01:36:29;;;;;;;8.48;2.10;;;21.40;75.80;;;;;;4875029;29;20446;-81
2021/03/06 01:38:59;;;;;;;11.57;2.10;;;21.10;77.00;;;;;;4872856;29;20820;-80
2021/03/06 01:41:26;;;;;;;11.48;2.45;;;21.10;78.40;;;;;;4875925;29;20430;-82
2021/03/06 01:43:53;;;;;;;10.20;2.35;;;21.00;78.20;;;;;;4873914;29;20459;-81
2021/03/06 01:46:20;;;;;;;12.20;2.40;;;21.20;77.40;;;;;;4867492;29;20943;-81
2021/03/06 01:48:47;;;;;;;11.25;2.35;;;21.30;79.90;;;;;;4859635;29;20392;-81
2021/03/06 01:51:14;;;;;;;11.20;2.42;;;21.60;75.40;;;;;;4860274;29;20768;-80
2021/03/06 01:53:42;;;;;;;13.52;2.05;;;22.00;78.60;;;;;;4860020;29;20392;-81
2021/03/06 01:56:09;;;;;;;10.90;2.15;;;22.00;75.80;;;;;;4860022;29;20412;-82
2021/03/06 01:58:36;;;;;;;14.10;2.45;;;22.10;75.60;;;;;;4860121;29;20388;-80
2021/03/06 02:01:03;;;;;;;10.38;2.40;;;21.90;74.90;;;;;;4859899;29;20416;-81
2021/03/06 02:03:30;;;;;;;11.20;2.50;;;21.80;74.80;;;;;;4874212;29;20770;-80
2021/03/06 02:05:57;;;;;;;10.40;2.60;;;21.60;75.30;;;;;;4878056;29;20981;-82
2021/03/06 02:08:24;;;;;;;9.80;2.30;;;21.50;75.20;;;;;;4876404;29;20399;-81
2021/03/06 02:10:51;;;;;;;12.07;2.50;;;21.70;76.90;;;;;;4875265;29;20482;-83
2021/03/06 02:13:24;;;;;;;11.27;2.47;;;21.70;74.80;;;;;;4877817;29;20488;-81
2021/03/06 02:16:06;;;;;;;10.48;2.28;;;21.80;72.90;;;;;;4877498;29;20406;-81
2021/03/06 02:18:51;;;;;;;11.50;2.47;;;21.60;73.90;;;;;;4876659;29;20441;-81
2021/03/06 02:21:49;;;;;;;8.27;1.63;;;21.40;75.10;;;;;;4878007;29;20518;-81
2021/03/06 02:24:28;;;;;;;7.95;2.40;;;21.40;75.00;;;;;;4878028;29;20398;-81
2021/03/06 02:27:13;;;;;;;9.45;2.15;;;21.30;75.80;;;;;;4876698;29;20426;-82
2021/03/06 02:29:49;;;;;;;9.65;2.17;;;21.40;74.80;;;;;;4877101;29;20407;-81
2021/03/06 02:32:22;;;;;;;10.85;2.90;;;21.40;76.00;;;;;;4877431;29;20897;-82
2021/03/06 02:35:02;;;;;;;11.10;1.90;;;21.30;75.10;;;;;;4877299;29;20470;-81
2021/03/06 02:37:31;;;;;;;8.20;2.20;;;21.30;76.60;;;;;;4877967;29;20386;-81
2021/03/06 02:40:00;;;;;;;9.30;1.83;;;21.50;74.30;;;;;;4877709;29;20422;-81
2021/03/06 02:42:29;;;;;;;9.13;2.40;;;21.60;75.80;;;;;;4878077;29;20437;-81
2021/03/06 02:44:58;;;;;;;10.63;2.05;;;21.60;73.00;;;;;;4878422;29;20397;-80
2021/03/06 02:47:26;;;;;;;9.65;2.35;;;21.70;76.50;;;;;;4877477;29;20433;-80
2021/03/06 02:50:00;;;;;;;10.23;2.20;;;21.50;74.50;;;;;;4877541;29;20447;-80
2021/03/06 02:52:28;;;;;;;8.43;2.27;;;21.50;75.80;;;;;;4877131;29;20462;-80
2021/03/06 02:54:55;;;;;;;11.25;2.10;;;21.60;75.50;;;;;;4877023;29;20458;-81
2021/03/06 02:57:58;;;;;;;10.00;2.10;;;21.60;75.90;;;;;;4877504;29;20458;-80
2021/03/06 03:00:35;;;;;;;10.65;2.03;;;21.70;75.50;;;;;;4874300;29;20457;-79
2021/03/06 03:03:17;;;;;;;9.65;2.08;;;21.70;75.30;;;;;;4876312;29;20555;-79
2021/03/06 03:06:05;;;;;;;7.60;1.80;;;21.90;77.10;;;;;;4874479;29;20430;-79
2021/03/06 03:08:38;;;;;;;7.95;2.00;;;21.90;75.80;;;;;;4875545;29;20510;-81
2021/03/06 03:11:11;;;;;;;8.20;1.90;;;21.90;75.10;;;;;;4871901;29;20395;-80
2021/03/06 03:13:52;;;;;;;12.77;2.40;;;22.00;76.20;;;;;;4875656;29;20407;-78
2021/03/06 03:16:23;;;;;;;10.97;2.07;;;22.00;75.80;;;;;;4875585;29;20406;-80
2021/03/06 03:18:59;;;;;;;8.18;1.80;;;21.80;75.20;;;;;;4875657;29;20897;-78
2021/03/06 03:21:29;;;;;;;7.53;1.90;;;21.60;74.90;;;;;;4867601;29;20431;-80
2021/03/06 03:24:07;;;;;;;10.75;2.42;;;21.70;75.10;;;;;;4874535;29;20418;-80
2021/03/06 03:26:39;;;;;;;7.90;1.90;;;21.90;74.10;;;;;;4876289;29;20407;-79
2021/03/06 03:29:08;;;;;;;11.30;2.20;;;21.90;74.00;;;;;;4875000;29;20407;-80
2021/03/06 03:31:37;;;;;;;9.98;2.13;;;21.80;74.70;;;;;;4875827;29;20423;-79
2021/03/06 03:34:07;;;;;;;9.65;1.75;;;22.10;76.50;;;;;;4874899;29;20507;-79
2021/03/06 03:36:36;;;;;;;10.13;2.33;;;22.30;72.80;;;;;;4875057;29;20476;-78
2021/03/06 03:39:04;;;;;;;8.70;2.10;;;22.10;74.00;;;;;;4876798;29;20478;-80
2021/03/06 03:41:33;;;;;;;7.95;1.92;;;21.90;75.60;;;;;;4875630;29;20422;-79
2021/03/06 03:44:05;;;;;;;10.23;2.10;;;21.90;75.50;;;;;;4876643;29;20744;-79
2021/03/06 03:46:34;;;;;;;10.53;2.73;;;21.90;74.50;;;;;;4875875;29;20407;-78
2021/03/06 03:49:04;;;;;;;10.48;2.20;;;22.00;73.70;;;;;;4875626;29;20958;-81
2021/03/06 03:51:33;;;;;;;7.03;2.07;;;22.10;74.90;;;;;;4875762;29;20459;-80
2021/03/06 03:54:01;;;;;;;8.93;2.08;;;22.00;75.50;;;;;;4874490;29;20419;-79
2021/03/06 03:56:29;;;;;;;6.35;1.95;;;21.90;75.60;;;;;;4874740;29;20506;-79
2021/03/06 03:58:55;;;;;;;7.63;2.33;;;21.90;74.40;;;;;;4874495;29;20410;-79
2021/03/06 04:01:22;;;;;;;12.02;2.08;;;21.80;75.20;;;;;;4873956;29;20418;-78
2021/03/06 04:03:49;;;;;;;6.85;2.10;;;21.80;75.50;;;;;;4872507;29;20428;-81
2021/03/06 04:06:16;;;;;;;9.88;2.08;;;22.00;75.40;;;;;;4874637;29;20535;-80
2021/03/06 04:08:43;;;;;;;8.18;2.33;;;21.90;73.20;;;;;;4875744;29;20411;-80
2021/03/06 04:11:10;;;;;;;9.52;1.90;;;21.80;75.30;;;;;;4875775;29;20474;-81
2021/03/06 04:13:37;;;;;;;8.57;1.92;;;21.70;76.20;;;;;;4875054;29;20409;-82
2021/03/06 04:16:05;;;;;;;7.90;2.07;;;21.60;74.60;;;;;;4875379;29;20395;-81
2021/03/06 04:18:31;;;;;;;7.25;1.58;;;21.50;75.50;;;;;;4873550;29;20406;-80
2021/03/06 04:20:58;;;;;;;8.27;2.05;;;21.40;76.40;;;;;;4874268;29;20430;-82
2021/03/06 04:23:25;;;;;;;9.43;2.13;;;21.60;75.90;;;;;;4875535;29;20407;-81
2021/03/06 04:25:52;;;;;;;10.35;2.20;;;21.50;73.80;;;;;;4876254;29;20383;-81
2021/03/06 04:28:19;;;;;;;10.25;2.33;;;21.40;75.40;;;;;;4875548;29;20470;-82
2021/03/06 04:30:46;;;;;;;8.25;2.30;;;21.40;74.40;;;;;;4872554;29;20406;-82
2021/03/06 04:33:13;;;;;;;6.30;2.00;;;21.30;74.70;;;;;;4875077;29;20411;-81
2021/03/06 04:35:40;;;;;;;8.70;2.17;;;21.20;76.30;;;;;;4875592;29;20778;-81
2021/03/06 04:38:07;;;;;;;7.07;2.08;;;21.40;76.20;;;;;;4875098;29;20435;-82
2021/03/06 04:40:34;;;;;;;8.13;2.10;;;21.70;75.50;;;;;;4875400;29;20515;-82
2021/03/06 04:43:01;;;;;;;7.75;1.98;;;21.90;76.80;;;;;;4874361;29;20418;-79
2021/03/06 04:45:28;;;;;;;11.13;2.13;;;22.00;77.20;;;;;;4875991;29;20466;-81
2021/03/06 04:47:55;;;;;;;8.93;2.28;;;21.80;77.40;;;;;;4875122;29;20395;-79
2021/03/06 04:50:22;;;;;;;8.00;1.80;;;21.70;77.00;;;;;;4857013;29;20456;-81
2021/03/06 04:52:49;;;;;;;8.93;1.80;;;21.40;77.80;;;;;;4857157;29;20499;-80
2021/03/06 04:55:16;;;;;;;9.85;1.90;;;21.20;78.70;;;;;;4856953;29;20405;-81
2021/03/06 04:57:43;;;;;;;8.75;1.95;;;21.00;78.90;;;;;;4874711;29;21232;-81
2021/03/06 05:00:10;;;;;;;10.57;2.50;;;20.80;78.70;;;;;;4875682;29;20541;-80
2021/03/06 05:02:37;;;;;;;7.72;1.67;;;20.80;80.00;;;;;;4875254;29;20431;-80
2021/03/06 05:05:06;;;;;;;10.57;2.22;;;20.80;78.80;;;;;;4875141;29;20466;-81
2021/03/06 05:07:34;;;;;;;8.25;1.88;;;20.80;79.50;;;;;;4875562;29;20410;-82
2021/03/06 05:10:01;;;;;;;5.72;1.98;;;20.80;79.30;;;;;;4875443;29;20398;-81
2021/03/06 05:12:28;;;;;;;7.63;2.00;;;20.70;78.70;;;;;;4875733;29;20470;-81
2021/03/06 05:14:55;;;;;;;8.23;1.73;;;20.80;80.70;;;;;;4876016;29;20899;-82
2021/03/06 05:17:22;;;;;;;6.78;1.77;;;20.80;79.50;;;;;;4875692;29;20395;-82
2021/03/06 05:19:49;;;;;;;8.10;2.20;;;20.90;80.10;;;;;;4875424;29;20504;-81
2021/03/06 05:22:16;;;;;;;9.32;1.98;;;20.80;79.30;;;;;;4875069;29;20402;-81
2021/03/06 05:24:48;;;;;;;7.45;1.80;;;20.70;80.90;;;;;;4874605;29;20386;-81
2021/03/06 05:27:16;;;;;;;6.93;1.95;;;20.80;81.60;;;;;;4872792;29;20419;-81
2021/03/06 05:29:43;;;;;;;7.00;1.67;;;21.00;81.60;;;;;;4874466;29;20443;-81
2021/03/06 05:32:10;;;;;;;7.18;1.83;;;21.30;80.80;;;;;;4874471;29;20418;-82
2021/03/06 05:34:37;;;;;;;6.20;1.30;;;21.30;80.60;;;;;;4876130;29;20454;-82
2021/03/06 05:37:04;;;;;;;4.32;1.50;;;21.10;79.70;;;;;;4878177;29;20451;-80
2021/03/06 05:39:31;;;;;;;7.70;1.60;;;20.90;81.60;;;;;;4874822;29;20423;-80
2021/03/06 05:41:58;;;;;;;5.40;1.65;;;20.60;82.10;;;;;;4874321;29;20455;-81
2021/03/06 05:44:26;;;;;;;7.27;1.63;;;20.40;83.40;;;;;;4874859;29;21042;-80
2021/03/06 05:46:56;;;;;;;6.72;1.60;;;20.40;83.80;;;;;;4873158;29;20917;-80
2021/03/06 05:49:23;;;;;;;7.13;1.70;;;20.50;84.90;;;;;;4874171;29;20427;-81
2021/03/06 05:51:52;;;;;;;7.45;1.48;;;20.70;83.90;;;;;;4874492;29;20446;-81
2021/03/06 05:54:21;;;;;;;6.47;1.60;;;20.80;84.20;;;;;;4875533;29;20477;-80
2021/03/06 05:56:50;;;;;;;6.70;1.77;;;20.80;82.80;;;;;;4874479;29;20486;-81
2021/03/06 05:59:18;;;;;;;6.72;1.38;;;20.70;81.70;;;;;;4874650;29;20457;-80
2021/03/06 06:01:47;;;;;;;8.60;1.80;;;20.60;82.60;;;;;;4874601;29;20475;-80
2021/03/06 06:04:15;;;;;;;7.30;1.80;;;20.40;82.80;;;;;;4886822;29;20470;-80
2021/03/06 06:06:42;;;;;;;4.75;1.40;;;20.30;82.30;;;;;;4874515;29;20470;-80
2021/03/06 06:09:10;;;;;;;5.70;1.48;;;20.30;83.40;;;;;;4874184;29;20403;-80
2021/03/06 06:11:39;;;;;;;5.95;1.40;;;20.20;83.70;;;;;;4873771;29;20414;-79
2021/03/06 06:14:07;;;;;;;6.50;1.65;;;20.20;84.20;;;;;;4874118;29;20401;-81
2021/03/06 06:16:35;;;;;;;6.18;1.50;;;20.20;85.90;;;;;;4874155;29;20893;-81
2021/03/06 06:19:04;;;;;;;7.30;1.52;;;20.20;85.50;;;;;;4874561;29;20402;-79
2021/03/06 06:21:45;;;;;;;9.43;1.80;;;20.20;84.70;;;;;;4874715;29;20462;-81
2021/03/06 06:24:18;;;;;;;7.50;1.80;;;20.30;84.20;;;;;;4874805;29;20402;-80
2021/03/06 06:27:02;;;;;;;6.35;1.52;;;20.20;85.10;;;;;;4874860;29;20414;-80
2021/03/06 06:29:42;;;;;;;7.53;1.55;;;20.20;86.10;;;;;;4874813;29;20477;-80
2021/03/06 06:32:14;;;;;;;6.45;1.83;;;20.20;86.60;;;;;;4874633;29;20463;-80
2021/03/06 06:34:43;;;;;;;8.05;1.83;;;20.20;87.40;;;;;;4877366;29;20506;-81
2021/03/06 06:37:17;;;;;;;6.93;2.00;;;20.10;87.40;;;;;;4878439;29;20922;-81
2021/03/06 06:39:44;;;;;;;9.98;1.95;;;20.20;88.40;;;;;;4878091;29;20517;-82
2021/03/06 06:42:11;;;;;;;10.02;2.22;;;20.10;87.40;;;;;;4878611;29;20410;-82
2021/03/06 06:44:39;;;;;;;6.05;1.52;;;20.00;88.30;;;;;;4877999;29;20414;-80
2021/03/06 06:47:16;;;;;;;6.18;1.65;;;20.00;87.60;;;;;;4877930;29;20395;-81
2021/03/06 06:49:50;;;;;;;7.80;1.88;;;19.90;88.60;;;;;;4877315;29;20740;-80
2021/03/06 06:52:20;;;;;;;8.40;2.00;;;19.90;88.30;;;;;;4875852;29;21064;-80
2021/03/06 06:54:58;;;;;;;6.35;1.92;;;19.80;88.40;;;;;;4877598;29;20593;-80
2021/03/06 06:57:26;;;;;;;6.88;1.70;;;19.80;88.20;;;;;;4877416;29;20402;-80
2021/03/06 07:00:07;;;;;;;7.25;1.60;;;19.70;88.90;;;;;;4877094;29;20934;-80
2021/03/06 07:02:35;;;;;;;7.33;1.93;;;19.60;89.70;;;;;;4876901;29;20455;-80
2021/03/06 07:05:03;;;;;;;6.65;1.70;;;19.50;90.00;;;;;;4877653;29;20490;-82
2021/03/06 07:07:44;;;;;;;7.15;1.85;;;19.50;90.20;;;;;;4877277;29;20398;-81
2021/03/06 07:10:18;;;;;;;5.10;1.73;;;19.50;90.20;;;;;;4859214;29;20450;-82
2021/03/06 07:13:06;;;;;;;8.02;1.80;;;19.40;90.10;;;;;;4876383;29;20462;-82
2021/03/06 07:15:33;;;;;;;6.90;1.92;;;19.30;90.70;;;;;;4875238;29;20430;-82
2021/03/06 07:18:09;;;;;;;7.75;1.90;;;19.20;90.90;;;;;;4876062;29;20407;-80
2021/03/06 07:20:37;;;;;;;9.02;1.75;;;19.10;90.90;;;;;;4874993;29;20454;-82
2021/03/06 07:23:19;;;;;;;8.57;2.08;;;19.00;91.40;;;;;;4876599;29;20470;-83
2021/03/06 07:25:50;;;;;;;7.18;1.60;;;19.00;91.90;;;;;;4869093;29;20422;-81
2021/03/06 07:28:17;;;;;;;6.35;1.83;;;18.90;91.50;;;;;;4871277;29;20705;-82
2021/03/06 07:30:44;;;;;;;9.65;1.75;;;18.80;91.90;;;;;;4876354;29;20451;-80
2021/03/06 07:33:16;;;;;;;7.13;1.92;;;18.80;91.60;;;;;;4875357;29;20470;-81
2021/03/06 07:35:45;;;;;;;8.93;2.13;;;18.80;91.80;;;;;;4875876;29;20486;-80
2021/03/06 07:38:21;;;;;;;10.15;2.25;;;18.70;91.70;;;;;;4875796;29;20464;-82
2021/03/06 07:40:49;;;;;;;9.60;2.10;;;18.70;91.60;;;;;;4876923;29;20827;-81
2021/03/06 07:43:26;;;;;;;6.70;1.63;;;18.70;91.90;;;;;;4877589;29;20430;-82
2021/03/06 07:45:53;;;;;;;11.63;2.22;;;18.70;92.20;;;;;;4872869;29;20423;-82
2021/03/06 07:48:24;;;;;;;8.35;1.90;;;18.60;92.60;;;;;;4876892;29;20887;-83
2021/03/06 07:50:51;;;;;;;10.35;2.25;;;18.60;93.20;;;;;;4874144;29;20407;-82
2021/03/06 07:53:20;;;;;;;10.98;2.20;;;18.60;93.80;;;;;;4874835;29;20828;-83
2021/03/06 07:55:48;;;;;;;10.65;1.88;;;18.50;94.20;;;;;;4876317;29;20926;-81
2021/03/06 07:58:22;;;;;;;13.73;2.42;;;18.50;94.90;;;;;;4873973;29;20426;-82
2021/03/06 08:00:54;;;;;;;8.85;2.30;;;18.50;95.50;;;;;;4871464;29;20464;-82
2021/03/06 08:03:27;;;;;;;12.70;2.22;;;18.50;96.00;;;;;;4875327;29;20403;-82
2021/03/06 08:05:59;;;;;;;11.63;2.30;;;18.50;96.40;;;;;;4873303;29;20449;-82
2021/03/06 08:08:32;;;;;;;10.40;2.47;;;18.50;96.60;;;;;;4876257;29;20532;-81
2021/03/06 08:11:10;;;;;;;10.93;1.88;;;18.50;96.90;;;;;;4875842;29;20411;-84
2021/03/06 08:13:41;;;;;;;9.60;2.28;;;18.60;96.80;;;;;;4874912;29;20494;-85
2021/03/06 08:16:23;;;;;;;11.48;2.22;;;18.60;97.10;;;;;;4877053;29;20470;-84
2021/03/06 08:19:00;;;;;;;10.80;2.67;;;18.60;96.80;;;;;;4876558;29;20950;-84
2021/03/06 08:21:30;;;;;;;14.82;2.70;;;18.60;96.90;;;;;;4875984;29;21254;-84
2021/03/06 08:24:15;;;;;;;10.40;2.40;;;18.60;96.90;;;;;;4872750;29;20395;-83
2021/03/06 08:27:04;;;;;;;12.52;2.30;;;18.60;96.90;;;;;;4876527;29;20399;-86
2021/03/06 08:29:33;;;;;;;12.75;2.47;;;18.60;96.80;;;;;;4875730;29;20414;-84
2021/03/06 08:32:25;;;;;;;9.55;2.33;;;18.60;97.10;;;;;;4875837;29;20477;-85
2021/03/06 08:34:53;;;;;;;11.63;2.30;;;18.60;97.00;;;;;;4876092;29;20410;-85
2021/03/06 08:37:21;;;;;;;10.97;2.43;;;18.70;96.10;;;;;;4874502;29;20389;-84
2021/03/06 08:39:56;;;;;;;12.43;2.22;;;18.60;95.90;;;;;;4874213;29;20981;-84
2021/03/06 08:42:28;;;;;;;16.00;2.92;;;18.70;96.00;;;;;;4873485;29;20414;-84
2021/03/06 08:44:58;;;;;;;12.43;2.33;;;18.60;96.00;;;;;;4873977;29;20416;-84
2021/03/06 08:47:27;;;;;;;8.30;1.90;;;18.60;96.20;;;;;;4873184;29;20406;-83
2021/03/06 08:49:58;;;;;;;13.73;2.75;;;18.60;95.70;;;;;;4864230;29;20407;-84
2021/03/06 08:52:28;;;;;;;11.05;2.53;;;18.60;95.90;;;;;;4871480;29;20676;-85
2021/03/06 08:54:56;;;;;;;11.00;2.00;;;18.60;95.80;;;;;;4870935;29;21396;-84
2021/03/06 08:57:25;;;;;;;8.30;2.00;;;18.60;95.70;;;;;;4869926;29;20429;-84
2021/03/06 08:59:53;;;;;;;8.18;1.75;;;18.60;95.80;;;;;;4854117;29;20590;-84
2021/03/06 09:02:28;;;;;;;9.20;2.15;;;18.50;96.00;;;;;;4870346;29;20479;-85
2021/03/06 09:05:13;;;;;;;11.00;2.10;;;18.50;96.00;;;;;;4870566;29;20973;-85
2021/03/06 09:07:47;;;;;;;10.68;2.40;;;18.50;96.10;;;;;;4872110;29;20403;-87
2021/03/06 09:10:22;;;;;;;10.38;2.20;;;18.50;96.20;;;;;;4872597;29;20405;-87
2021/03/06 09:13:04;;;;;;;7.35;2.00;;;18.50;96.30;;;;;;4870774;29;20533;-85
2021/03/06 09:15:37;;;;;;;12.63;2.40;;;18.50;96.40;;;;;;4875716;29;20407;-86
2021/03/06 09:18:06;;;;;;;10.27;2.05;;;18.50;96.60;;;;;;4874577;29;20451;-85
2021/03/06 09:20:39;;;;;;;11.05;2.30;;;18.50;96.40;;;;;;4874733;29;20942;-87
2021/03/06 09:23:06;;;;;;;11.57;2.28;;;18.50;96.60;;;;;;4874456;29;20410;-85
2021/03/06 09:25:38;;;;;;;11.30;2.47;;;18.40;96.60;;;;;;4875167;29;20892;-85
2021/03/06 09:28:10;;;;;;;11.60;2.63;;;18.50;96.40;;;;;;4875229;29;20403;-85
2021/03/06 09:30:42;;;;;;;13.68;2.53;;;18.40;96.60;;;;;;4870590;29;20406;-85
2021/03/06 09:33:31;;;;;;;10.75;1.75;;;18.40;96.90;;;;;;4872746;29;20382;-85
2021/03/06 09:36:03;;;;;;;12.88;2.40;;;18.40;96.90;;;;;;4872230;29;20407;-86
2021/03/06 09:38:30;;;;;;;10.07;2.47;;;18.50;96.90;;;;;;4871950;29;20946;-85
2021/03/06 09:40:58;;;;;;;11.30;1.90;;;18.50;97.10;;;;;;4871056;29;20433;-85
2021/03/06 09:43:31;;;;;;;11.07;2.45;;;18.50;97.00;;;;;;4870175;29;20404;-86
2021/03/06 09:45:59;;;;;;;9.25;2.60;;;18.50;97.30;;;;;;4872863;29;20510;-86
2021/03/06 09:48:27;;;;;;;10.67;2.07;;;18.40;97.40;;;;;;4872821;29;20393;-86
2021/03/06 09:50:58;;;;;;;9.97;2.40;;;18.50;97.40;;;;;;4873729;29;20386;-86
2021/03/06 09:53:29;;;;;;;11.20;2.58;;;18.50;97.40;;;;;;4872653;29;20484;-86
2021/03/06 09:56:13;;;;;;;11.13;2.30;;;18.60;97.10;;;;;;4873539;29;20475;-86
2021/03/06 09:58:43;;;;;;;10.30;2.65;;;18.60;96.60;;;;;;4873441;29;20882;-85
2021/03/06 10:01:21;;;;;;;10.02;2.42;;;18.70;96.80;;;;;;4875361;29;20426;-86
2021/03/06 10:03:49;;;;;;;9.93;2.15;;;18.70;96.50;;;;;;4875733;29;20454;-86
2021/03/06 10:06:22;;;;;;;9.18;2.50;;;18.70;96.50;;;;;;4873443;29;20414;-85
2021/03/06 10:08:56;;;;;;;8.75;2.00;;;18.60;96.70;;;;;;4874206;29;20518;-85
2021/03/06 10:11:39;;;;;;;10.20;2.30;;;18.70;96.50;;;;;;4876322;29;20969;-85
2021/03/06 10:14:11;;;;;;;8.85;1.95;;;18.70;96.70;;;;;;4874236;29;20498;-86
2021/03/06 10:16:49;;;;;;;12.73;2.25;;;18.70;96.60;;;;;;4874107;29;20415;-85
2021/03/06 10:19:18;;;;;;;9.63;2.33;;;18.60;96.50;;;;;;4862841;29;20404;-85
2021/03/06 10:22:04;;;;;;;10.10;2.35;;;18.60;96.50;;;;;;4872294;29;20451;-85
2021/03/06 10:24:52;;;;;;;7.32;1.90;;;18.60;96.30;;;;;;4875610;29;20395;-85
2021/03/06 10:27:35;;;;;;;8.35;2.00;;;18.50;96.50;;;;;;4875549;29;20394;-84
2021/03/06 10:30:33;;;;;;;11.35;2.25;;;18.50;96.20;;;;;;4875870;29;20391;-86
2021/03/06 10:33:02;;;;;;;9.33;1.83;;;18.50;96.40;;;;;;4875487;29;21140;-85
2021/03/06 10:35:50;;;;;;;10.48;2.08;;;18.50;96.40;;;;;;4874752;29;20421;-83
2021/03/06 10:38:27;;;;;;;10.15;2.10;;;18.50;96.40;;;;;;4874787;29;20605;-82
2021/03/06 10:40:58;;;;;;;10.88;2.22;;;18.50;96.20;;;;;;4875255;29;20442;-84
2021/03/06 10:43:36;;;;;;;12.68;2.22;;;18.60;96.20;;;;;;4871538;29;20391;-85
2021/03/06 10:46:24;;;;;;;9.95;2.05;;;18.50;96.30;;;;;;4876017;29;20442;-85
2021/03/06 10:48:57;;;;;;;10.05;2.40;;;18.50;96.30;;;;;;4873742;29;20414;-85
2021/03/06 10:51:41;;;;;;;9.77;2.33;;;18.50;96.30;;;;;;4874069;29;20591;-85
2021/03/06 10:54:09;;;;;;;11.13;2.25;;;18.50;96.50;;;;;;4874120;29;20414;-86
2021/03/06 10:56:37;;;;;;;9.77;2.17;;;18.50;96.60;;;;;;4873686;29;20410;-82
2021/03/06 10:59:04;;;;;;;9.75;2.17;;;18.40;96.50;;;;;;4872509;29;20419;-83
2021/03/06 11:01:33;;;;;;;10.73;2.60;;;18.40;96.80;;;;;;4873582;29;20430;-82
2021/03/06 11:04:00;;;;;;;10.18;2.83;;;18.40;96.90;;;;;;4872961;29;20466;-82
2021/03/06 11:06:28;;;;;;;8.18;2.35;;;18.40;97.00;;;;;;4874029;29;20414;-83
2021/03/06 11:09:04;;;;;;;6.78;2.22;;;18.30;97.00;;;;;;4873072;29;21217;-83
2021/03/06 11:11:31;;;;;;;9.93;2.17;;;18.40;97.10;;;;;;4873221;29;20421;-81
2021/03/06 11:13:58;;;;;;;14.73;2.95;;;18.30;97.40;;;;;;4870977;29;20896;-82
2021/03/06 11:16:41;;;;;;;10.15;2.30;;;18.30;97.00;;;;;;4872878;29;20479;-83
2021/03/06 11:19:08;;;;;;;7.57;2.08;;;18.20;97.10;;;;;;4871046;29;20411;-81
2021/03/06 11:21:35;;;;;;;10.35;2.17;;;18.20;97.20;;;;;;4872831;29;20430;-82
2021/03/06 11:24:02;;;;;;;8.85;2.10;;;18.20;97.30;;;;;;4873120;29;20969;-83
2021/03/06 11:26:30;;;;;;;11.20;2.80;;;18.20;97.20;;;;;;4869284;29;20945;-83
2021/03/06 11:28:57;;;;;;;14.98;2.67;;;18.20;97.40;;;;;;4876823;29;20435;-82
2021/03/06 11:31:24;;;;;;;12.43;2.55;;;18.10;97.50;;;;;;4869097;29;20415;-82
2021/03/06 11:33:51;;;;;;;12.38;2.60;;;18.20;97.80;;;;;;4871410;29;20509;-82
2021/03/06 11:36:18;;;;;;;11.65;2.17;;;18.10;98.00;;;;;;4877348;29;20773;-83
2021/03/06 11:38:45;;;;;;;11.93;2.30;;;18.10;98.10;;;;;;4877584;29;20414;-83
2021/03/06 11:41:12;;;;;;;10.70;2.50;;;18.10;97.80;;;;;;4876412;29;20516;-83
2021/03/06 11:43:39;;;;;;;12.20;2.45;;;18.20;97.80;;;;;;4879697;29;21063;-83
2021/03/06 11:46:06;;;;;;;13.82;2.70;;;18.20;98.10;;;;;;4878039;29;21198;-82
2021/03/06 11:48:33;;;;;;;12.02;2.65;;;18.20;98.10;;;;;;4879880;29;20397;-82
2021/03/06 11:51:00;;;;;;;9.03;2.37;;;18.20;98.30;;;;;;4878643;29;20406;-83
2021/03/06 11:53:27;;;;;;;7.70;2.05;;;18.10;98.40;;;;;;4877308;29;20409;-83
2021/03/06 11:55:55;;;;;;;10.77;2.50;;;18.10;98.30;;;;;;4879327;29;21999;-81
2021/03/06 11:58:21;;;;;;;10.80;2.40;;;18.00;98.40;;;;;;4881043;29;20805;-83
2021/03/06 12:00:48;;;;;;;12.40;2.97;;;18.00;98.40;;;;;;4879776;29;20465;-82
2021/03/06 12:03:15;;;;;;;9.13;2.30;;;18.00;98.60;;;;;;4876149;29;20977;-84
2021/03/06 12:05:42;;;;;;;13.13;2.20;;;17.90;98.60;;;;;;4876507;29;21120;-82
2021/03/06 12:08:09;;;;;;;10.98;2.17;;;17.80;98.80;;;;;;4876974;29;20442;-82
2021/03/06 12:10:36;;;;;;;13.48;2.65;;;17.80;99.10;;;;;;4876647;29;20446;-82
2021/03/06 12:13:03;;;;;;;10.68;2.50;;;17.80;99.30;;;;;;4878829;29;20405;-82
2021/03/06 12:15:30;;;;;;;8.50;2.20;;;17.70;99.60;;;;;;4876296;29;20399;-82
2021/03/06 12:17:57;;;;;;;14.97;2.60;;;17.70;99.70;;;;;;4877125;29;20491;-82
2021/03/06 12:20:24;;;;;;;12.07;2.63;;;17.70;99.70;;;;;;4895373;29;20512;-82
2021/03/06 12:22:52;;;;;;;12.93;2.60;;;17.70;99.90;;;;;;4881487;29;20490;-82
2021/03/06 12:25:19;;;;;;;9.82;2.53;;;17.70;99.90;;;;;;4876007;29;20422;-83
2021/03/06 12:27:46;;;;;;;13.00;2.50;;;17.70;99.90;;;;;;4875647;29;20410;-83
2021/03/06 12:30:16;;;;;;;12.27;2.70;;;17.70;99.90;;;;;;4875934;29;20422;-81
2021/03/06 12:32:48;;;;;;;7.57;2.38;;;17.80;99.90;;;;;;4873849;29;20426;-83
2021/03/06 12:35:16;;;;;;;10.55;2.78;;;17.80;99.90;;;;;;4874912;29;20975;-83
2021/03/06 12:37:43;;;;;;;6.85;2.40;;;17.80;99.90;;;;;;4874713;29;20894;-82
2021/03/06 12:40:12;;;;;;;13.82;2.63;;;17.80;99.90;;;;;;4874844;29;20914;-83
2021/03/06 12:42:39;;;;;;;9.32;2.88;;;17.80;99.90;;;;;;4874309;29;20447;-81
2021/03/06 12:45:07;;;;;;;11.15;2.83;;;17.90;99.90;;;;;;4875441;29;20378;-82
2021/03/06 12:47:35;;;;;;;8.60;2.40;;;17.90;99.90;;;;;;4876436;29;20451;-81
2021/03/06 12:50:02;;;;;;;12.18;3.10;;;17.80;99.90;;;;;;4875512;29;20918;-83
2021/03/06 12:52:29;;;;;;;10.65;2.85;;;17.80;99.90;;;;;;4874785;29;20407;-82
2021/03/06 12:54:57;;;;;;;13.10;2.85;;;17.70;99.90;;;;;;4873871;29;20568;-82
2021/03/06 12:57:24;;;;;;;11.38;2.70;;;17.80;99.90;;;;;;4875049;29;20402;-82